»·PEaware :: ANW942 KLAS-KSNA

ANW942 :: KLAS-KSNA

FLIGHT INFORMATION

Flight Status: Arrived
Operator:
Air Northwest (website)
More flights by this operator :: More flights under this callsign
Pilot: Brian G. (1243)
Aircraft: BOEING 737-800
(B738)
More flights by this aircraft type
Origin: KLAS McCarran Intl
United States
Destination: KSNA John Wayne-Orange Co
United States
More flights between these airports :: More routes between these airports
Route: MCCRN3 HEC KAYOH4
File this flight plan on PilotEdge
Remarks:
Altitude:
(Current/Filed)
20,000ft
Speed:
(Current/Filed)
447kts
Departed: 10-Apr-13 08:59 PM
Arrived: 10-Apr-13 09:40 PM
Distance/Time
Traveled:
196nm/0:41
Distance/Time
To Go:
Arrived

Flight Plot

Page will automatically refresh every two minutes.


Map Options




Map Legend


Flown Route
Filed Route
Departure Airport
Arrival Airport
Navaid (VOR, NDB)
Fix

Horizontal Profiles

Position Reports

Time Latitude Longitude Heading Altitude Ground
Speed
10-Apr-13 20:44 36.085743 -115.154610 150 2190ft 0kts
10-Apr-13 20:45 36.085743 -115.154610 150 2190ft 0kts
10-Apr-13 20:46 36.085743 -115.154610 150 2190ft 0kts
10-Apr-13 20:47 36.085743 -115.154610 150 2190ft 0kts
10-Apr-13 20:48 36.085743 -115.154610 150 2190ft 0kts
10-Apr-13 20:49 36.085743 -115.154610 150 2190ft 0kts
10-Apr-13 20:50 36.085743 -115.154610 150 2190ft 0kts
10-Apr-13 20:51 36.085743 -115.154610 150 2190ft 0kts
10-Apr-13 20:52 36.085745 -115.154611 150 2190ft 0kts
10-Apr-13 20:53 36.085976 -115.155034 270 2190ft 5kts
10-Apr-13 20:54 36.089932 -115.156286 19 2190ft 16kts
10-Apr-13 20:55 36.092706 -115.154755 24 2190ft 9kts
10-Apr-13 20:56 36.095279 -115.153308 24 2190ft 10kts
10-Apr-13 20:57 36.097850 -115.152345 314 2190ft 8kts
10-Apr-13 20:58 36.097966 -115.152580 298 2190ft 4kts
10-Apr-13 20:59 36.088878 -115.159082 204 2190ft 136kts
10-Apr-13 21:00 36.042097 -115.183550 203 5736ft 205kts
10-Apr-13 21:01 35.994568 -115.224460 232 9750ft 218kts
10-Apr-13 21:02 35.949172 -115.284977 232 13101ft 261kts
10-Apr-13 21:03 35.881616 -115.328222 185 16277ft 311kts
10-Apr-13 21:04 35.786178 -115.321739 172 18433ft 378kts
10-Apr-13 21:05 35.671937 -115.296135 155 19972ft 436kts
10-Apr-13 21:06 35.561429 -115.289361 212 20002ft 417kts
10-Apr-13 21:07 35.524605 -115.415932 277 20019ft 412kts
10-Apr-13 21:08 35.500315 -115.553428 225 20020ft 415kts
10-Apr-13 21:09 35.418202 -115.622613 224 20014ft 351kts
10-Apr-13 21:10 35.352088 -115.713017 229 20022ft 364kts
10-Apr-13 21:11 35.286644 -115.814768 225 20037ft 400kts
10-Apr-13 21:12 35.209757 -115.920188 223 20054ft 428kts
10-Apr-13 21:13 35.133163 -116.021168 231 20051ft 386kts
10-Apr-13 21:14 35.059214 -116.118861 231 20075ft 395kts
10-Apr-13 21:15 34.984189 -116.218212 230 18687ft 392kts
10-Apr-13 21:16 34.910264 -116.314895 230 16925ft 389kts
10-Apr-13 21:17 34.836697 -116.411022 230 15161ft 385kts
10-Apr-13 21:18 34.762142 -116.505817 228 13846ft 389kts
10-Apr-13 21:19 34.693589 -116.589892 229 13058ft 322kts
10-Apr-13 21:20 34.631986 -116.665554 229 13002ft 313kts
10-Apr-13 21:21 34.570928 -116.740553 229 13004ft 313kts
10-Apr-13 21:22 34.509612 -116.815577 229 12998ft 313kts
10-Apr-13 21:23 34.448319 -116.890353 229 13004ft 313kts
10-Apr-13 21:24 34.386750 -116.965289 228 13010ft 313kts
10-Apr-13 21:25 34.325224 -117.040003 228 13012ft 313kts
10-Apr-13 21:26 34.258098 -117.107484 216 13036ft 318kts
10-Apr-13 21:27 34.186531 -117.169915 219 12836ft 323kts
10-Apr-13 21:28 34.114953 -117.233590 219 11088ft 313kts
10-Apr-13 21:29 34.047224 -117.296219 222 9339ft 301kts
10-Apr-13 21:30 33.983625 -117.358902 222 8037ft 285kts
10-Apr-13 21:31 33.926679 -117.414686 222 7991ft 249kts
10-Apr-13 21:32 33.873873 -117.466961 225 7990ft 243kts
10-Apr-13 21:33 33.823680 -117.520829 225 7985ft 242kts
10-Apr-13 21:34 33.792041 -117.589206 264 7585ft 239kts
10-Apr-13 21:35 33.788677 -117.661280 272 5845ft 194kts
10-Apr-13 21:36 33.779445 -117.721953 245 4447ft 193kts
10-Apr-13 21:37 33.753310 -117.773938 238 2739ft 171kts
10-Apr-13 21:38 33.728649 -117.818814 233 1400ft 153kts
10-Apr-13 21:39 33.698978 -117.854298 213 497ft 147kts
10-Apr-13 21:40 33.672030 -117.871143 207 65ft 40kts
10-Apr-13 21:41 33.668929 -117.871519 69 65ft 10kts
10-Apr-13 21:42 33.670798 -117.869616 38 65ft 17kts
10-Apr-13 21:43 33.673726 -117.866361 27 65ft 10kts
10-Apr-13 21:44 33.676451 -117.864764 25 65ft 12kts
10-Apr-13 21:45 33.677128 -117.863434 117 65ft 0kts
10-Apr-13 21:46 33.677127 -117.863431 117 65ft 0kts

Navigation Log

Ident Type
Flight plan parsing failed, navigation log unavailable